METAR Data
IDs: Format: Raw Decoded Include TAF

Data at: 1351 UTC 10 Aug 2022

KIPL 101253Z AUTO 00000KT 10SM CLR 30/23 A2987 RMK AO2 SLP114 T03000228
KIPL 101153Z AUTO 12007KT 10SM CLR 31/22 A2985 RMK AO2 SLP108 T03060222 10317 20289 50002
KIPL 101053Z AUTO 11006KT 10SM CLR 32/19 A2985 RMK AO2 SLP108 T03170189
KIPL 100953Z AUTO 13004KT 10SM CLR 31/17 A2985 RMK AO2 SLP109 T03060172
KIPL 100853Z AUTO 27005KT 10SM CLR 30/17 A2984 RMK AO2 SLP105 T03000172 53004
KIPL 100753Z AUTO 27008KT 10SM CLR 30/17 A2983 RMK AO2 SLP100 T03000172 404170272
KIPL 100653Z AUTO 27007KT 10SM CLR 30/18 A2983 RMK AO2 SLP101 T03000178
KIPL 100553Z AUTO 27007KT 10SM CLR 31/18 A2983 RMK AO2 SLP101 T03060178 10400 20306 51016
KIPL 100453Z AUTO 27007KT 10SM CLR 31/19 A2982 RMK AO2 SLP099 T03060189
KIPL 100353Z AUTO 27008KT 10SM CLR 32/19 A2981 RMK AO2 SLP094 T03220189
KIPL 100253Z AUTO 24006KT 10SM CLR 33/21 A2978 RMK AO2 SLP085 T03330211 53014
KIPL 100153Z AUTO 25008KT 10SM CLR 36/17 A2976 RMK AO2 SLP077 T03610172
KIPL 100053Z AUTO 18015KT 10SM FEW110 34/18 A2975 RMK AO2 PK WND 24034/0011 SLP076 T03440183
KIPL 092353Z AUTO 27018G31KT 7SM VCTS FEW025 BKN100 41/18 A2974 RMK AO2 PK WND 25031/2350 LTG DSNT SE-W SLP071 T04060178 10417 20361 56009
KIPL 092349Z AUTO 25008KT 10SM VCTS BKN100 41/16 A2974 RMK AO2 LTG DSNT SE-W
KIPL 092253Z AUTO VRB04KT 10SM CLR 41/16 A2975 RMK AO2 LTG DSNT SW AND W SLP075 T04060156
KIPL 092153Z AUTO VRB05KT 10SM CLR 41/16 A2976 RMK AO2 SLP080 T04060161
KIPL 092053Z AUTO VRB06KT 10SM CLR 40/17 A2980 RMK AO2 SLP091 T04000167 58025
KIPL 091953Z AUTO VRB03G16KT 10SM CLR 39/17 A2983 RMK AO2 SLP103 T03890167
KIPL 091853Z AUTO 11009KT 10SM CLR 38/17 A2986 RMK AO2 SLP111 T03830172
KIPL 091753Z AUTO 12008KT 10SM CLR 36/19 A2987 RMK AO2 SLP116 T03610194 10361 20272 50003
KIPL 091653Z AUTO 11006KT 10SM CLR 34/20 A2987 RMK AO2 SLP117 T03440200
KIPL 091553Z AUTO 00000KT 10SM CLR 32/22 A2987 RMK AO2 SLP116 T03220217
KIPL 091453Z AUTO 24003KT 10SM CLR 31/22 A2986 RMK AO2 SLP113 T03060217 53015
KIPL 091353Z AUTO 14004KT 10SM CLR 29/21 A2985 RMK AO2 SLP109 T02940206
KIPL 091253Z AUTO 06003KT 10SM CLR 28/22 A2983 RMK AO2 SLP102 T02830217
KIPL 091153Z AUTO 00000KT 10SM CLR 28/22 A2982 RMK AO2 SLP099 T02830217 10294 20278 53004
KIPL 091053Z AUTO 26003KT 10SM CLR 28/21 A2981 RMK AO2 SLP095 T02830211
KIPL 090953Z AUTO 19003KT 10SM CLR 28/22 A2981 RMK AO2 SLP095 T02830217
KIPL 090853Z AUTO 24003KT 10SM CLR 28/22 A2981 RMK AO2 SLP094 T02780222 56010
KIPL 090753Z AUTO 25005KT 10SM CLR 29/22 A2981 RMK AO2 SLP096 T02890222 404060272
KIPL 090653Z AUTO 23005KT 10SM CLR 29/22 A2982 RMK AO2 SLP099 T02890217
KIPL 090553Z AUTO 00000KT 10SM CLR 29/22 A2984 RMK AO2 SLP104 60000 T02940217 10406 20272 53014
KIPL 090453Z AUTO 28004KT 10SM CLR 27/22 A2983 RMK AO2 SLP101 T02720222
KIPL 090353Z AUTO 22005KT 10SM CLR 30/22 A2979 RMK AO2 SLP090 T03000217
KIPL 090314Z AUTO 00000KT 10SM CLR 29/21 A2979 RMK AO2 LTG DSNT E T02890206
KIPL 090253Z AUTO 26008G23KT 10SM VCTS FEW100 29/21 A2979 RMK AO2 PK WND 24035/0207 LTG DSNT E AND S AND W RAB05E24 TSE06B07E31 SLP090 P0000 60000 T02890211 53015
KIPL 090237Z AUTO 26011G23KT 10SM VCTS FEW080 SCT100 29/22 A2980 RMK AO2 PK WND 24035/0207 LTG DSNT W RAB05E24 TSE06B07E31 P0000 T02890222
KIPL 090213Z AUTO 27015G35KT 3SM -TSRA SCT005 BKN090 28/23 A2980 RMK AO2 PK WND 24035/0207 LTG DSNT S-NW RAB05 TSE06B07 P0000 T02780228
KIPL 090209Z AUTO 26024G35KT 2SM +TSRA BKN005 OVC090 28/22 A2980 RMK AO2 PK WND 24035/0207 LTG DSNT S-W RAB05 TSE06B07 P0000 T02780222
KIPL 090206Z AUTO 26023G34KT 1 1/2SM VCTS -RA BKN005 OVC090 29/22 A2980 RMK AO2 PK WND 27034/0206 LTG DSNT S-W RAB05 TSE06 P0000 T02890217
KIPL 090201Z AUTO 27017G34KT 1 1/4SM TS HZ BKN005 BKN085 OVC110 31/20 A2980 RMK AO2 PK WND 27032/0155 LTG DSNT S-W T03060200
KIPL 090153Z AUTO 28024G34KT 3/4SM TS HZ BKN005 OVC090 32/19 A2979 RMK AO2 PK WND 29039/0135 LTG DSNT SW AND W TSB51 SLP089 T03170189